Flag for Vietnam

Past Weather in 16°07'04.0"N, 108°12'56.5"E, Vietnam — Yesterday and Last 2 Weeks

Currently: 81 °F. Passing clouds. (Weather station: Da Nang Airport, Vietnam). See more current weather

Past Weather in 16°07'04.0"N, 108°12'56.5"E — Graph

°F

16°07'04.0"N, 108°12'56.5"E Temperature Yesterday

Maximum temperature yesterday: 91 °F (at 12:30 pm)
Minimum temperature yesterday: 79 °F (at 3:30 am)
Average temperature yesterday: 84 °F

High & Low Weather Summary for the Past Weeks

 TemperatureHumidityPressure
High95 °F (May 13, 12:30 pm)100% (May 17, 6:30 am)29.95 "Hg (May 17, 6:30 am)
Low77 °F (May 4, 1:30 am)49% (May 9, 10:00 am)29.65 "Hg (May 18, 2:00 pm)
Average84 °F77%29.83 "Hg
* Reported May 3 10:00 pm — May 18 10:30 pm, 16°07'04.0"N, 108°12'56.5"E. Weather by CustomWeather, © 2024

Note: Actual official high and low records may vary slightly from our data, if they occured in-between our weather recording intervals... More about our weather records

16°07'04.0"N, 108°12'56.5"E Weather History for the Previous 24 Hours

Scroll right to see more
 ConditionsComfort  
Time TempWeatherWind HumidityBarometerVisibility
10:30 pm
Sat, May 18
81 °FPassing clouds.6 mph89%29.74 "HgN/A
10:00 pm82 °FPassing clouds.3 mph84%29.74 "HgN/A
9:00 pm84 °FPassing clouds.3 mph79%29.74 "HgN/A
8:30 pm86 °FPassing clouds.2 mph75%29.74 "HgN/A
8:00 pm84 °FPassing clouds.2 mph79%29.71 "HgN/A
7:30 pm86 °FPassing clouds.1 mph75%29.71 "HgN/A
7:00 pm86 °FPassing clouds.3 mph75%29.71 "HgN/A
6:30 pm86 °FPassing clouds.2 mph75%29.71 "HgN/A
6:00 pm86 °FScattered clouds.5 mph75%29.68 "HgN/A
5:30 pm86 °FScattered clouds.6 mph70%29.68 "HgN/A
5:00 pm86 °FPassing clouds.7 mph70%29.65 "HgN/A
4:30 pm86 °FPassing clouds.6 mph75%29.65 "HgN/A
4:00 pm88 °FPassing clouds.7 mph66%29.65 "HgN/A
3:30 pm88 °FPassing clouds.8 mph66%29.65 "HgN/A
3:00 pm90 °FPassing clouds.8 mph63%29.65 "HgN/A
2:00 pm90 °FPassing clouds.8 mph67%29.65 "HgN/A
1:30 pm90 °FPassing clouds.7 mph67%29.68 "HgN/A
1:00 pm90 °FPassing clouds.7 mph67%29.68 "HgN/A
12:30 pm91 °FPassing clouds.6 mph63%29.71 "HgN/A
12:00 pm88 °FPassing clouds.6 mph70%29.71 "HgN/A
11:30 am90 °FScattered clouds.3 mph63%29.74 "HgN/A
11:00 am88 °FScattered clouds.2 mph70%29.74 "HgN/A
10:30 am88 °FScattered clouds.3 mph70%29.77 "HgN/A
10:00 am88 °FScattered clouds.3 mph70%29.77 "HgN/A
9:30 am86 °FScattered clouds.3 mph75%29.77 "HgN/A
9:00 am86 °FScattered clouds.3 mph75%29.77 "HgN/A
8:30 am84 °FScattered clouds.3 mph79%29.77 "HgN/A
8:00 am84 °FPassing clouds.2 mph79%29.77 "HgN/A
7:30 am82 °FPassing clouds.No wind89%29.77 "HgN/A
7:00 am82 °FPassing clouds.No wind84%29.77 "HgN/A
6:30 am81 °FPassing clouds.No wind94%29.77 "HgN/A
6:00 am79 °FSunny.1 mph94%29.77 "Hg10 mi
5:30 am79 °FPassing clouds.2 mph94%29.77 "HgN/A
5:00 am79 °FPassing clouds.1 mph94%29.74 "HgN/A
4:30 am81 °FPassing clouds.2 mph89%29.77 "Hg5 mi
4:00 am79 °FPassing clouds.1 mph94%29.74 "Hg5 mi
3:30 am79 °FPassing clouds.1 mph94%29.74 "Hg5 mi
3:00 am81 °FPassing clouds.2 mph89%29.74 "Hg5 mi
2:30 am81 °FPassing clouds.1 mph89%29.74 "Hg5 mi
2:00 am81 °FPassing clouds.3 mph89%29.77 "Hg5 mi
1:30 am81 °FPassing clouds.3 mph89%29.77 "Hg5 mi
1:00 am81 °FPassing clouds.2 mph89%29.80 "Hg5 mi
12:30 am81 °FPassing clouds.No wind89%29.80 "Hg5 mi
12:00 am82 °FPassing clouds.1 mph84%29.83 "HgN/A
Weather by CustomWeather, © 2024

See weather overview